sensor_id;sensor_type;location;lat;lon;timestamp;P1;durP1;ratioP1;P2;durP2;ratioP2
1925;SDS011;964;42.606;23.588;2023-05-17T00:01:17;11.07;;;6.83;;
1925;SDS011;964;42.606;23.588;2023-05-17T00:03:43;13.10;;;7.27;;
1925;SDS011;964;42.606;23.588;2023-05-17T00:06:10;10.83;;;6.83;;
1925;SDS011;964;42.606;23.588;2023-05-17T00:08:37;14.53;;;6.87;;
1925;SDS011;964;42.606;23.588;2023-05-17T00:11:05;15.30;;;6.70;;
1925;SDS011;964;42.606;23.588;2023-05-17T00:13:31;9.40;;;6.73;;
1925;SDS011;964;42.606;23.588;2023-05-17T00:15:58;10.93;;;6.37;;
1925;SDS011;964;42.606;23.588;2023-05-17T00:18:25;12.00;;;5.90;;
1925;SDS011;964;42.606;23.588;2023-05-17T00:20:51;9.87;;;6.10;;
1925;SDS011;964;42.606;23.588;2023-05-17T00:23:18;11.43;;;5.90;;
1925;SDS011;964;42.606;23.588;2023-05-17T00:25:44;12.27;;;5.37;;
1925;SDS011;964;42.606;23.588;2023-05-17T00:28:13;9.70;;;5.67;;
1925;SDS011;964;42.606;23.588;2023-05-17T00:30:40;8.27;;;5.73;;
1925;SDS011;964;42.606;23.588;2023-05-17T00:33:07;9.17;;;5.97;;
1925;SDS011;964;42.606;23.588;2023-05-17T00:35:33;10.07;;;5.90;;
1925;SDS011;964;42.606;23.588;2023-05-17T00:38:00;13.27;;;6.13;;
1925;SDS011;964;42.606;23.588;2023-05-17T00:40:27;11.33;;;5.87;;
1925;SDS011;964;42.606;23.588;2023-05-17T00:42:53;11.10;;;5.93;;
1925;SDS011;964;42.606;23.588;2023-05-17T00:45:22;9.23;;;6.10;;
1925;SDS011;964;42.606;23.588;2023-05-17T00:47:48;11.90;;;5.57;;
1925;SDS011;964;42.606;23.588;2023-05-17T00:50:15;8.10;;;6.20;;
1925;SDS011;964;42.606;23.588;2023-05-17T00:52:42;7.80;;;5.53;;
1925;SDS011;964;42.606;23.588;2023-05-17T00:55:09;12.33;;;6.33;;
1925;SDS011;964;42.606;23.588;2023-05-17T00:57:36;8.30;;;5.37;;
1925;SDS011;964;42.606;23.588;2023-05-17T01:00:03;12.93;;;6.27;;
1925;SDS011;964;42.606;23.588;2023-05-17T01:02:32;10.10;;;5.80;;
1925;SDS011;964;42.606;23.588;2023-05-17T01:04:58;9.67;;;6.00;;
1925;SDS011;964;42.606;23.588;2023-05-17T01:07:25;14.27;;;7.40;;
1925;SDS011;964;42.606;23.588;2023-05-17T01:09:52;10.23;;;6.07;;
1925;SDS011;964;42.606;23.588;2023-05-17T01:12:22;14.30;;;5.67;;
1925;SDS011;964;42.606;23.588;2023-05-17T01:15:04;10.57;;;6.20;;
1925;SDS011;964;42.606;23.588;2023-05-17T01:17:40;8.73;;;6.53;;
1925;SDS011;964;42.606;23.588;2023-05-17T01:20:17;10.90;;;7.70;;
1925;SDS011;964;42.606;23.588;2023-05-17T01:22:52;13.37;;;8.20;;
1925;SDS011;964;42.606;23.588;2023-05-17T01:25:35;12.93;;;9.23;;
1925;SDS011;964;42.606;23.588;2023-05-17T01:28:13;18.17;;;10.27;;
1925;SDS011;964;42.606;23.588;2023-05-17T01:30:41;12.67;;;10.37;;
1925;SDS011;964;42.606;23.588;2023-05-17T01:33:12;17.77;;;10.40;;
1925;SDS011;964;42.606;23.588;2023-05-17T01:35:39;13.97;;;9.50;;
1925;SDS011;964;42.606;23.588;2023-05-17T01:38:06;12.93;;;9.70;;
1925;SDS011;964;42.606;23.588;2023-05-17T01:40:33;16.57;;;11.50;;
1925;SDS011;964;42.606;23.588;2023-05-17T01:43:08;20.77;;;13.77;;
1925;SDS011;964;42.606;23.588;2023-05-17T01:45:46;20.27;;;14.20;;
1925;SDS011;964;42.606;23.588;2023-05-17T01:48:22;19.10;;;12.20;;
1925;SDS011;964;42.606;23.588;2023-05-17T01:50:53;18.33;;;13.23;;
1925;SDS011;964;42.606;23.588;2023-05-17T01:53:24;15.70;;;12.33;;
1925;SDS011;964;42.606;23.588;2023-05-17T01:55:55;17.87;;;12.60;;
1925;SDS011;964;42.606;23.588;2023-05-17T01:58:26;17.60;;;11.77;;
1925;SDS011;964;42.606;23.588;2023-05-17T02:00:57;14.30;;;11.13;;
1925;SDS011;964;42.606;23.588;2023-05-17T02:03:26;18.33;;;11.87;;
1925;SDS011;964;42.606;23.588;2023-05-17T02:05:54;21.23;;;12.97;;
1925;SDS011;964;42.606;23.588;2023-05-17T02:08:20;18.37;;;13.03;;
1925;SDS011;964;42.606;23.588;2023-05-17T02:10:47;18.73;;;12.50;;
1925;SDS011;964;42.606;23.588;2023-05-17T02:13:14;14.90;;;11.47;;
1925;SDS011;964;42.606;23.588;2023-05-17T02:15:40;14.67;;;12.37;;
1925;SDS011;964;42.606;23.588;2023-05-17T02:18:09;22.03;;;13.30;;
1925;SDS011;964;42.606;23.588;2023-05-17T02:20:36;16.87;;;12.07;;
1925;SDS011;964;42.606;23.588;2023-05-17T02:23:03;19.93;;;13.47;;
1925;SDS011;964;42.606;23.588;2023-05-17T02:25:30;21.07;;;13.40;;
1925;SDS011;964;42.606;23.588;2023-05-17T02:27:57;17.27;;;13.20;;
1925;SDS011;964;42.606;23.588;2023-05-17T02:30:23;19.40;;;14.23;;
1925;SDS011;964;42.606;23.588;2023-05-17T02:32:50;20.03;;;12.47;;
1925;SDS011;964;42.606;23.588;2023-05-17T02:35:19;21.23;;;13.40;;
1925;SDS011;964;42.606;23.588;2023-05-17T02:37:45;19.83;;;13.83;;
1925;SDS011;964;42.606;23.588;2023-05-17T02:40:12;16.00;;;13.07;;
1925;SDS011;964;42.606;23.588;2023-05-17T02:42:39;19.67;;;13.57;;
1925;SDS011;964;42.606;23.588;2023-05-17T02:45:06;20.27;;;13.97;;
1925;SDS011;964;42.606;23.588;2023-05-17T02:47:33;19.60;;;14.37;;
1925;SDS011;964;42.606;23.588;2023-05-17T02:50:00;21.20;;;14.67;;
1925;SDS011;964;42.606;23.588;2023-05-17T02:52:28;21.07;;;13.73;;
1925;SDS011;964;42.606;23.588;2023-05-17T02:54:54;33.70;;;15.87;;
1925;SDS011;964;42.606;23.588;2023-05-17T02:57:21;20.37;;;15.97;;
1925;SDS011;964;42.606;23.588;2023-05-17T02:59:48;21.30;;;15.70;;
1925;SDS011;964;42.606;23.588;2023-05-17T03:02:15;20.50;;;14.07;;
1925;SDS011;964;42.606;23.588;2023-05-17T03:04:41;19.67;;;14.90;;
1925;SDS011;964;42.606;23.588;2023-05-17T03:07:08;25.03;;;15.53;;
1925;SDS011;964;42.606;23.588;2023-05-17T03:09:36;20.10;;;15.43;;
1925;SDS011;964;42.606;23.588;2023-05-17T03:12:03;24.67;;;17.27;;
1925;SDS011;964;42.606;23.588;2023-05-17T03:14:31;24.50;;;16.37;;
1925;SDS011;964;42.606;23.588;2023-05-17T03:16:58;20.40;;;16.07;;
1925;SDS011;964;42.606;23.588;2023-05-17T03:19:24;22.30;;;17.10;;
1925;SDS011;964;42.606;23.588;2023-05-17T03:21:51;24.77;;;18.13;;
1925;SDS011;964;42.606;23.588;2023-05-17T03:24:18;27.20;;;18.63;;
1925;SDS011;964;42.606;23.588;2023-05-17T03:26:46;25.00;;;19.20;;
1925;SDS011;964;42.606;23.588;2023-05-17T03:29:13;22.83;;;17.80;;
1925;SDS011;964;42.606;23.588;2023-05-17T03:31:40;24.60;;;18.43;;
1925;SDS011;964;42.606;23.588;2023-05-17T03:34:06;25.67;;;18.80;;
1925;SDS011;964;42.606;23.588;2023-05-17T03:36:33;23.67;;;16.33;;
1925;SDS011;964;42.606;23.588;2023-05-17T03:39:00;29.20;;;18.33;;
1925;SDS011;964;42.606;23.588;2023-05-17T03:41:27;26.43;;;19.07;;
1925;SDS011;964;42.606;23.588;2023-05-17T03:43:56;24.63;;;19.07;;
1925;SDS011;964;42.606;23.588;2023-05-17T03:46:22;29.40;;;18.10;;
1925;SDS011;964;42.606;23.588;2023-05-17T03:48:49;23.60;;;18.80;;
1925;SDS011;964;42.606;23.588;2023-05-17T03:51:16;25.10;;;18.63;;
1925;SDS011;964;42.606;23.588;2023-05-17T03:53:43;23.60;;;16.90;;
1925;SDS011;964;42.606;23.588;2023-05-17T03:56:10;39.80;;;21.20;;
1925;SDS011;964;42.606;23.588;2023-05-17T03:58:37;28.00;;;19.53;;
1925;SDS011;964;42.606;23.588;2023-05-17T04:01:05;28.30;;;19.70;;
1925;SDS011;964;42.606;23.588;2023-05-17T04:03:31;25.53;;;19.67;;
1925;SDS011;964;42.606;23.588;2023-05-17T04:06:02;32.70;;;20.07;;
1925;SDS011;964;42.606;23.588;2023-05-17T04:08:30;26.20;;;19.13;;
1925;SDS011;964;42.606;23.588;2023-05-17T04:10:57;26.83;;;18.20;;
1925;SDS011;964;42.606;23.588;2023-05-17T04:13:25;27.23;;;19.67;;
1925;SDS011;964;42.606;23.588;2023-05-17T04:15:52;25.60;;;17.97;;
1925;SDS011;964;42.606;23.588;2023-05-17T04:18:20;25.80;;;18.33;;
1925;SDS011;964;42.606;23.588;2023-05-17T04:20:46;25.70;;;17.70;;
1925;SDS011;964;42.606;23.588;2023-05-17T04:23:13;33.10;;;19.30;;
1925;SDS011;964;42.606;23.588;2023-05-17T04:25:42;29.57;;;19.67;;
1925;SDS011;964;42.606;23.588;2023-05-17T04:28:09;29.37;;;18.50;;
1925;SDS011;964;42.606;23.588;2023-05-17T04:30:36;24.60;;;16.67;;
1925;SDS011;964;42.606;23.588;2023-05-17T04:33:07;24.53;;;15.50;;
1925;SDS011;964;42.606;23.588;2023-05-17T04:35:35;27.40;;;16.10;;
1925;SDS011;964;42.606;23.588;2023-05-17T04:38:03;24.43;;;16.50;;
1925;SDS011;964;42.606;23.588;2023-05-17T04:40:30;26.80;;;17.27;;
1925;SDS011;964;42.606;23.588;2023-05-17T04:42:56;26.13;;;17.90;;
1925;SDS011;964;42.606;23.588;2023-05-17T04:45:23;27.23;;;17.07;;
1925;SDS011;964;42.606;23.588;2023-05-17T04:47:50;25.90;;;18.53;;
1925;SDS011;964;42.606;23.588;2023-05-17T04:50:17;25.47;;;16.13;;
1925;SDS011;964;42.606;23.588;2023-05-17T04:52:46;34.00;;;18.50;;
1925;SDS011;964;42.606;23.588;2023-05-17T04:55:12;24.30;;;16.80;;
1925;SDS011;964;42.606;23.588;2023-05-17T04:57:39;26.40;;;16.13;;
1925;SDS011;964;42.606;23.588;2023-05-17T05:00:06;29.70;;;17.70;;
1925;SDS011;964;42.606;23.588;2023-05-17T05:02:34;26.07;;;17.03;;
1925;SDS011;964;42.606;23.588;2023-05-17T05:05:01;27.50;;;17.93;;
1925;SDS011;964;42.606;23.588;2023-05-17T05:07:28;26.10;;;15.77;;
1925;SDS011;964;42.606;23.588;2023-05-17T05:09:56;23.83;;;16.57;;
1925;SDS011;964;42.606;23.588;2023-05-17T05:12:23;28.03;;;17.67;;
1925;SDS011;964;42.606;23.588;2023-05-17T05:14:50;29.63;;;18.20;;
1925;SDS011;964;42.606;23.588;2023-05-17T05:17:17;29.23;;;18.10;;
1925;SDS011;964;42.606;23.588;2023-05-17T05:19:43;31.43;;;18.20;;
1925;SDS011;964;42.606;23.588;2023-05-17T05:22:10;25.30;;;16.60;;
1925;SDS011;964;42.606;23.588;2023-05-17T05:24:37;30.33;;;17.30;;
1925;SDS011;964;42.606;23.588;2023-05-17T05:27:05;24.80;;;16.20;;
1925;SDS011;964;42.606;23.588;2023-05-17T05:29:31;24.37;;;16.13;;
1925;SDS011;964;42.606;23.588;2023-05-17T05:31:58;23.40;;;15.47;;
1925;SDS011;964;42.606;23.588;2023-05-17T05:34:25;24.57;;;16.83;;
1925;SDS011;964;42.606;23.588;2023-05-17T05:36:52;30.93;;;16.47;;
1925;SDS011;964;42.606;23.588;2023-05-17T05:39:19;27.80;;;16.03;;
1925;SDS011;964;42.606;23.588;2023-05-17T05:41:45;24.97;;;14.80;;
1925;SDS011;964;42.606;23.588;2023-05-17T05:44:14;24.00;;;14.70;;
1925;SDS011;964;42.606;23.588;2023-05-17T05:46:40;22.73;;;14.60;;
1925;SDS011;964;42.606;23.588;2023-05-17T05:49:07;21.27;;;14.43;;
1925;SDS011;964;42.606;23.588;2023-05-17T05:51:34;23.50;;;15.40;;
1925;SDS011;964;42.606;23.588;2023-05-17T05:54:00;18.43;;;13.67;;
1925;SDS011;964;42.606;23.588;2023-05-17T05:56:27;20.93;;;15.53;;
1925;SDS011;964;42.606;23.588;2023-05-17T05:58:54;22.10;;;14.30;;
1925;SDS011;964;42.606;23.588;2023-05-17T06:01:23;20.27;;;14.70;;
1925;SDS011;964;42.606;23.588;2023-05-17T06:03:50;23.60;;;15.17;;
1925;SDS011;964;42.606;23.588;2023-05-17T06:06:17;23.97;;;14.50;;
1925;SDS011;964;42.606;23.588;2023-05-17T06:08:43;22.50;;;14.70;;
1925;SDS011;964;42.606;23.588;2023-05-17T06:11:11;18.97;;;13.63;;
1925;SDS011;964;42.606;23.588;2023-05-17T06:13:38;24.03;;;15.33;;
1925;SDS011;964;42.606;23.588;2023-05-17T06:16:05;25.77;;;16.37;;
1925;SDS011;964;42.606;23.588;2023-05-17T06:18:33;23.57;;;12.97;;
1925;SDS011;964;42.606;23.588;2023-05-17T06:21:00;25.13;;;15.57;;
1925;SDS011;964;42.606;23.588;2023-05-17T06:23:27;22.67;;;13.50;;
1925;SDS011;964;42.606;23.588;2023-05-17T06:25:53;22.80;;;15.37;;
1925;SDS011;964;42.606;23.588;2023-05-17T06:28:20;23.10;;;15.03;;
1925;SDS011;964;42.606;23.588;2023-05-17T06:30:47;22.33;;;14.47;;
1925;SDS011;964;42.606;23.588;2023-05-17T06:33:13;21.50;;;14.57;;
1925;SDS011;964;42.606;23.588;2023-05-17T06:35:41;21.50;;;13.50;;
1925;SDS011;964;42.606;23.588;2023-05-17T06:38:08;21.30;;;13.20;;
1925;SDS011;964;42.606;23.588;2023-05-17T06:40:35;24.67;;;12.50;;
1925;SDS011;964;42.606;23.588;2023-05-17T06:43:02;14.70;;;11.50;;
1925;SDS011;964;42.606;23.588;2023-05-17T06:45:29;28.30;;;14.03;;
1925;SDS011;964;42.606;23.588;2023-05-17T06:47:55;20.63;;;13.50;;
1925;SDS011;964;42.606;23.588;2023-05-17T06:50:22;21.63;;;13.80;;
1925;SDS011;964;42.606;23.588;2023-05-17T06:52:52;21.43;;;12.40;;
1925;SDS011;964;42.606;23.588;2023-05-17T06:55:19;22.60;;;12.87;;
1925;SDS011;964;42.606;23.588;2023-05-17T06:57:45;18.50;;;11.60;;
1925;SDS011;964;42.606;23.588;2023-05-17T07:00:12;17.93;;;12.13;;
1925;SDS011;964;42.606;23.588;2023-05-17T07:02:40;19.97;;;11.67;;
1925;SDS011;964;42.606;23.588;2023-05-17T07:05:07;21.10;;;12.07;;
1925;SDS011;964;42.606;23.588;2023-05-17T07:07:34;14.90;;;10.97;;
1925;SDS011;964;42.606;23.588;2023-05-17T07:10:02;15.67;;;11.00;;
1925;SDS011;964;42.606;23.588;2023-05-17T07:12:29;21.40;;;12.10;;
1925;SDS011;964;42.606;23.588;2023-05-17T07:14:56;14.53;;;10.40;;
1925;SDS011;964;42.606;23.588;2023-05-17T07:17:22;20.37;;;13.33;;
1925;SDS011;964;42.606;23.588;2023-05-17T07:19:49;17.13;;;11.73;;
1925;SDS011;964;42.606;23.588;2023-05-17T07:22:16;16.00;;;11.03;;
1925;SDS011;964;42.606;23.588;2023-05-17T07:24:43;16.93;;;10.70;;
1925;SDS011;964;42.606;23.588;2023-05-17T07:27:11;21.70;;;11.23;;
1925;SDS011;964;42.606;23.588;2023-05-17T07:29:38;20.40;;;11.57;;
1925;SDS011;964;42.606;23.588;2023-05-17T07:32:06;19.63;;;10.30;;
1925;SDS011;964;42.606;23.588;2023-05-17T07:34:33;14.00;;;9.77;;
1925;SDS011;964;42.606;23.588;2023-05-17T07:37:00;17.17;;;10.50;;
1925;SDS011;964;42.606;23.588;2023-05-17T07:39:26;20.33;;;10.67;;
1925;SDS011;964;42.606;23.588;2023-05-17T07:41:53;16.80;;;10.50;;
1925;SDS011;964;42.606;23.588;2023-05-17T07:44:21;21.57;;;11.03;;
1925;SDS011;964;42.606;23.588;2023-05-17T07:46:48;15.60;;;10.37;;
1925;SDS011;964;42.606;23.588;2023-05-17T07:49:15;20.10;;;12.00;;
1925;SDS011;964;42.606;23.588;2023-05-17T07:51:42;21.20;;;11.53;;
1925;SDS011;964;42.606;23.588;2023-05-17T07:54:08;18.00;;;10.97;;
1925;SDS011;964;42.606;23.588;2023-05-17T07:56:35;21.13;;;11.63;;
1925;SDS011;964;42.606;23.588;2023-05-17T07:59:02;17.70;;;12.20;;
1925;SDS011;964;42.606;23.588;2023-05-17T08:01:30;17.47;;;11.20;;
1925;SDS011;964;42.606;23.588;2023-05-17T08:03:56;16.97;;;11.80;;
1925;SDS011;964;42.606;23.588;2023-05-17T08:06:23;18.23;;;10.90;;
1925;SDS011;964;42.606;23.588;2023-05-17T08:08:50;19.03;;;12.33;;
1925;SDS011;964;42.606;23.588;2023-05-17T08:11:17;19.07;;;11.50;;
1925;SDS011;964;42.606;23.588;2023-05-17T08:13:43;18.10;;;10.47;;
1925;SDS011;964;42.606;23.588;2023-05-17T08:16:10;20.40;;;12.50;;
1925;SDS011;964;42.606;23.588;2023-05-17T08:18:38;22.40;;;11.87;;
1925;SDS011;964;42.606;23.588;2023-05-17T08:21:05;16.43;;;10.07;;
1925;SDS011;964;42.606;23.588;2023-05-17T08:23:31;27.77;;;15.50;;
1925;SDS011;964;42.606;23.588;2023-05-17T08:25:58;21.13;;;13.77;;
1925;SDS011;964;42.606;23.588;2023-05-17T08:28:25;20.40;;;11.93;;
1925;SDS011;964;42.606;23.588;2023-05-17T08:30:52;20.57;;;9.57;;
1925;SDS011;964;42.606;23.588;2023-05-17T08:33:19;18.07;;;11.80;;
1925;SDS011;964;42.606;23.588;2023-05-17T08:35:47;21.07;;;12.00;;
1925;SDS011;964;42.606;23.588;2023-05-17T08:38:14;15.60;;;10.40;;
1925;SDS011;964;42.606;23.588;2023-05-17T08:40:41;20.13;;;11.60;;
1925;SDS011;964;42.606;23.588;2023-05-17T08:43:07;22.07;;;10.90;;
1925;SDS011;964;42.606;23.588;2023-05-17T08:45:37;20.07;;;12.80;;
1925;SDS011;964;42.606;23.588;2023-05-17T08:48:04;11.97;;;9.40;;
1925;SDS011;964;42.606;23.588;2023-05-17T08:50:32;13.67;;;8.17;;
1925;SDS011;964;42.606;23.588;2023-05-17T08:53:01;15.90;;;11.13;;
1925;SDS011;964;42.606;23.588;2023-05-17T08:55:28;26.97;;;15.80;;
1925;SDS011;964;42.606;23.588;2023-05-17T08:57:58;20.93;;;13.83;;
1925;SDS011;964;42.606;23.588;2023-05-17T09:00:26;16.20;;;10.93;;
1925;SDS011;964;42.606;23.588;2023-05-17T09:02:53;18.43;;;11.53;;
1925;SDS011;964;42.606;23.588;2023-05-17T09:05:20;16.20;;;10.37;;
1925;SDS011;964;42.606;23.588;2023-05-17T09:07:47;16.53;;;9.90;;
1925;SDS011;964;42.606;23.588;2023-05-17T09:10:16;17.33;;;10.60;;
1925;SDS011;964;42.606;23.588;2023-05-17T09:12:43;16.93;;;10.03;;
1925;SDS011;964;42.606;23.588;2023-05-17T09:15:13;18.33;;;11.60;;
1925;SDS011;964;42.606;23.588;2023-05-17T09:17:41;20.13;;;10.13;;
1925;SDS011;964;42.606;23.588;2023-05-17T09:20:09;17.13;;;9.53;;
1925;SDS011;964;42.606;23.588;2023-05-17T09:22:36;16.13;;;9.20;;
1925;SDS011;964;42.606;23.588;2023-05-17T09:25:03;20.77;;;10.73;;
1925;SDS011;964;42.606;23.588;2023-05-17T09:27:31;17.53;;;9.10;;
1925;SDS011;964;42.606;23.588;2023-05-17T09:29:58;17.60;;;10.70;;
1925;SDS011;964;42.606;23.588;2023-05-17T09:32:25;15.00;;;10.00;;
1925;SDS011;964;42.606;23.588;2023-05-17T09:34:52;15.50;;;10.10;;
1925;SDS011;964;42.606;23.588;2023-05-17T09:37:20;15.90;;;10.10;;
1925;SDS011;964;42.606;23.588;2023-05-17T09:39:46;13.90;;;9.47;;
1925;SDS011;964;42.606;23.588;2023-05-17T09:42:14;15.40;;;8.43;;
1925;SDS011;964;42.606;23.588;2023-05-17T09:44:50;20.00;;;8.90;;
1925;SDS011;964;42.606;23.588;2023-05-17T09:47:22;14.77;;;8.10;;
1925;SDS011;964;42.606;23.588;2023-05-17T09:49:50;11.57;;;8.63;;
1925;SDS011;964;42.606;23.588;2023-05-17T09:52:17;16.33;;;9.77;;
1925;SDS011;964;42.606;23.588;2023-05-17T09:54:51;16.13;;;10.50;;
1925;SDS011;964;42.606;23.588;2023-05-17T09:57:19;15.17;;;9.10;;
1925;SDS011;964;42.606;23.588;2023-05-17T09:59:46;14.73;;;9.30;;
1925;SDS011;964;42.606;23.588;2023-05-17T10:02:17;19.40;;;10.10;;
1925;SDS011;964;42.606;23.588;2023-05-17T10:04:47;12.47;;;8.37;;
1925;SDS011;964;42.606;23.588;2023-05-17T10:07:16;18.60;;;11.07;;
1925;SDS011;964;42.606;23.588;2023-05-17T10:09:44;18.53;;;10.57;;
1925;SDS011;964;42.606;23.588;2023-05-17T10:12:12;18.33;;;10.77;;
1925;SDS011;964;42.606;23.588;2023-05-17T10:14:42;16.97;;;10.17;;
1925;SDS011;964;42.606;23.588;2023-05-17T10:17:10;21.97;;;10.60;;
1925;SDS011;964;42.606;23.588;2023-05-17T10:19:39;20.47;;;11.30;;
1925;SDS011;964;42.606;23.588;2023-05-17T10:22:06;17.60;;;11.20;;
1925;SDS011;964;42.606;23.588;2023-05-17T10:24:34;18.10;;;10.00;;
1925;SDS011;964;42.606;23.588;2023-05-17T10:27:02;26.07;;;11.17;;
1925;SDS011;964;42.606;23.588;2023-05-17T10:29:30;16.40;;;10.30;;
1925;SDS011;964;42.606;23.588;2023-05-17T10:31:58;17.03;;;9.27;;
1925;SDS011;964;42.606;23.588;2023-05-17T10:34:30;16.67;;;10.30;;
1925;SDS011;964;42.606;23.588;2023-05-17T10:36:58;16.50;;;11.57;;
1925;SDS011;964;42.606;23.588;2023-05-17T10:39:26;24.00;;;10.23;;
1925;SDS011;964;42.606;23.588;2023-05-17T10:41:53;21.40;;;11.80;;
1925;SDS011;964;42.606;23.588;2023-05-17T10:44:22;19.23;;;10.33;;
1925;SDS011;964;42.606;23.588;2023-05-17T10:46:50;16.17;;;10.23;;
1925;SDS011;964;42.606;23.588;2023-05-17T10:49:19;17.00;;;8.93;;
1925;SDS011;964;42.606;23.588;2023-05-17T10:51:45;14.73;;;8.37;;
1925;SDS011;964;42.606;23.588;2023-05-17T10:54:14;13.03;;;8.50;;
1925;SDS011;964;42.606;23.588;2023-05-17T10:56:46;13.60;;;7.67;;
1925;SDS011;964;42.606;23.588;2023-05-17T10:59:16;14.77;;;7.27;;
1925;SDS011;964;42.606;23.588;2023-05-17T11:01:52;14.73;;;8.90;;
1925;SDS011;964;42.606;23.588;2023-05-17T11:04:32;11.67;;;7.60;;
1925;SDS011;964;42.606;23.588;2023-05-17T11:07:23;9.07;;;5.80;;
1925;SDS011;964;42.606;23.588;2023-05-17T11:09:55;13.30;;;7.77;;
1925;SDS011;964;42.606;23.588;2023-05-17T11:12:31;12.70;;;7.03;;
1925;SDS011;964;42.606;23.588;2023-05-17T11:15:02;12.10;;;7.50;;
1925;SDS011;964;42.606;23.588;2023-05-17T11:17:34;14.73;;;8.10;;
1925;SDS011;964;42.606;23.588;2023-05-17T11:20:29;12.17;;;6.70;;
1925;SDS011;964;42.606;23.588;2023-05-17T11:22:57;13.23;;;6.60;;
1925;SDS011;964;42.606;23.588;2023-05-17T11:25:28;11.93;;;7.23;;
1925;SDS011;964;42.606;23.588;2023-05-17T11:27:56;12.57;;;7.17;;
1925;SDS011;964;42.606;23.588;2023-05-17T11:30:24;15.07;;;7.80;;
1925;SDS011;964;42.606;23.588;2023-05-17T11:32:53;14.87;;;6.77;;
1925;SDS011;964;42.606;23.588;2023-05-17T11:35:25;14.13;;;7.23;;
1925;SDS011;964;42.606;23.588;2023-05-17T11:38:10;10.13;;;6.53;;
1925;SDS011;964;42.606;23.588;2023-05-17T11:40:40;13.80;;;7.80;;
1925;SDS011;964;42.606;23.588;2023-05-17T11:43:11;11.27;;;7.20;;
1925;SDS011;964;42.606;23.588;2023-05-17T11:45:40;11.03;;;8.10;;
1925;SDS011;964;42.606;23.588;2023-05-17T11:48:08;16.27;;;7.30;;
1925;SDS011;964;42.606;23.588;2023-05-17T11:50:37;11.07;;;7.80;;
1925;SDS011;964;42.606;23.588;2023-05-17T11:53:04;9.43;;;8.00;;
1925;SDS011;964;42.606;23.588;2023-05-17T11:55:32;13.80;;;8.90;;
1925;SDS011;964;42.606;23.588;2023-05-17T11:58:02;13.47;;;8.60;;
1925;SDS011;964;42.606;23.588;2023-05-17T12:00:29;11.33;;;7.37;;
1925;SDS011;964;42.606;23.588;2023-05-17T12:03:16;16.43;;;8.90;;
1925;SDS011;964;42.606;23.588;2023-05-17T12:05:44;18.13;;;7.70;;
1925;SDS011;964;42.606;23.588;2023-05-17T12:08:13;11.43;;;8.53;;
1925;SDS011;964;42.606;23.588;2023-05-17T12:10:43;11.50;;;8.10;;
1925;SDS011;964;42.606;23.588;2023-05-17T12:13:12;11.77;;;7.63;;
1925;SDS011;964;42.606;23.588;2023-05-17T12:15:39;17.60;;;7.40;;
1925;SDS011;964;42.606;23.588;2023-05-17T12:18:09;11.33;;;7.30;;
1925;SDS011;964;42.606;23.588;2023-05-17T12:20:37;10.97;;;7.60;;
1925;SDS011;964;42.606;23.588;2023-05-17T12:23:03;11.67;;;7.47;;
1925;SDS011;964;42.606;23.588;2023-05-17T12:25:30;8.97;;;6.50;;
1925;SDS011;964;42.606;23.588;2023-05-17T12:30:50;10.83;;;6.53;;
1925;SDS011;964;42.606;23.588;2023-05-17T12:33:18;9.93;;;6.67;;
1925;SDS011;964;42.606;23.588;2023-05-17T12:35:45;12.23;;;6.83;;
1925;SDS011;964;42.606;23.588;2023-05-17T12:38:11;9.50;;;5.97;;
1925;SDS011;964;42.606;23.588;2023-05-17T12:40:38;11.77;;;6.77;;
1925;SDS011;964;42.606;23.588;2023-05-17T12:43:05;13.20;;;7.63;;
1925;SDS011;964;42.606;23.588;2023-05-17T12:45:36;14.27;;;7.03;;
1925;SDS011;964;42.606;23.588;2023-05-17T12:48:06;10.13;;;7.20;;
1925;SDS011;964;42.606;23.588;2023-05-17T12:50:33;14.30;;;8.10;;
1925;SDS011;964;42.606;23.588;2023-05-17T12:53:06;10.80;;;7.40;;
1925;SDS011;964;42.606;23.588;2023-05-17T12:55:34;12.43;;;7.67;;
1925;SDS011;964;42.606;23.588;2023-05-17T12:58:02;10.53;;;8.10;;
1925;SDS011;964;42.606;23.588;2023-05-17T13:00:29;12.70;;;8.57;;
1925;SDS011;964;42.606;23.588;2023-05-17T13:02:57;14.20;;;8.20;;
1925;SDS011;964;42.606;23.588;2023-05-17T13:05:25;14.97;;;8.70;;
1925;SDS011;964;42.606;23.588;2023-05-17T13:07:52;12.13;;;6.77;;
1925;SDS011;964;42.606;23.588;2023-05-17T13:10:19;8.90;;;6.93;;
1925;SDS011;964;42.606;23.588;2023-05-17T13:12:53;8.20;;;6.63;;
1925;SDS011;964;42.606;23.588;2023-05-17T13:15:25;10.07;;;5.80;;
1925;SDS011;964;42.606;23.588;2023-05-17T13:17:53;10.40;;;6.03;;
1925;SDS011;964;42.606;23.588;2023-05-17T13:20:21;13.93;;;6.83;;
1925;SDS011;964;42.606;23.588;2023-05-17T13:22:48;13.50;;;7.20;;
1925;SDS011;964;42.606;23.588;2023-05-17T13:25:15;8.50;;;4.70;;
1925;SDS011;964;42.606;23.588;2023-05-17T13:27:41;10.20;;;5.80;;
1925;SDS011;964;42.606;23.588;2023-05-17T13:30:11;6.67;;;5.20;;
1925;SDS011;964;42.606;23.588;2023-05-17T13:32:38;7.93;;;5.30;;
1925;SDS011;964;42.606;23.588;2023-05-17T13:35:05;13.67;;;5.50;;
1925;SDS011;964;42.606;23.588;2023-05-17T13:37:34;10.20;;;5.00;;
1925;SDS011;964;42.606;23.588;2023-05-17T13:40:01;7.57;;;4.87;;
1925;SDS011;964;42.606;23.588;2023-05-17T13:42:28;8.50;;;4.70;;
1925;SDS011;964;42.606;23.588;2023-05-17T13:44:56;8.90;;;4.90;;
1925;SDS011;964;42.606;23.588;2023-05-17T13:47:22;8.80;;;4.90;;
1925;SDS011;964;42.606;23.588;2023-05-17T13:49:49;11.03;;;6.00;;
1925;SDS011;964;42.606;23.588;2023-05-17T13:52:16;8.67;;;4.70;;
1925;SDS011;964;42.606;23.588;2023-05-17T13:54:44;9.03;;;5.43;;
1925;SDS011;964;42.606;23.588;2023-05-17T13:57:10;7.43;;;5.40;;
1925;SDS011;964;42.606;23.588;2023-05-17T13:59:37;11.67;;;6.40;;
1925;SDS011;964;42.606;23.588;2023-05-17T14:02:04;14.83;;;9.70;;
1925;SDS011;964;42.606;23.588;2023-05-17T14:04:31;13.20;;;7.53;;
1925;SDS011;964;42.606;23.588;2023-05-17T14:06:59;8.80;;;6.30;;
1925;SDS011;964;42.606;23.588;2023-05-17T14:09:25;9.27;;;5.67;;
1925;SDS011;964;42.606;23.588;2023-05-17T14:11:55;9.00;;;6.57;;
1925;SDS011;964;42.606;23.588;2023-05-17T14:14:22;12.87;;;10.13;;
1925;SDS011;964;42.606;23.588;2023-05-17T14:16:51;21.33;;;14.30;;
1925;SDS011;964;42.606;23.588;2023-05-17T14:19:18;15.10;;;10.93;;
1925;SDS011;964;42.606;23.588;2023-05-17T14:21:45;9.33;;;6.40;;
1925;SDS011;964;42.606;23.588;2023-05-17T14:24:11;15.07;;;8.90;;
1925;SDS011;964;42.606;23.588;2023-05-17T14:26:38;29.13;;;13.93;;
1925;SDS011;964;42.606;23.588;2023-05-17T14:29:07;22.17;;;12.23;;
1925;SDS011;964;42.606;23.588;2023-05-17T14:31:33;8.00;;;5.90;;
1925;SDS011;964;42.606;23.588;2023-05-17T14:34:00;16.87;;;9.23;;
1925;SDS011;964;42.606;23.588;2023-05-17T14:36:28;12.70;;;8.40;;
1925;SDS011;964;42.606;23.588;2023-05-17T14:38:55;10.33;;;6.90;;
1925;SDS011;964;42.606;23.588;2023-05-17T14:41:23;12.03;;;8.27;;
1925;SDS011;964;42.606;23.588;2023-05-17T14:43:49;12.77;;;7.23;;
1925;SDS011;964;42.606;23.588;2023-05-17T14:46:18;12.63;;;8.97;;
1925;SDS011;964;42.606;23.588;2023-05-17T14:48:44;10.17;;;8.43;;
1925;SDS011;964;42.606;23.588;2023-05-17T14:51:11;20.40;;;11.17;;
1925;SDS011;964;42.606;23.588;2023-05-17T14:53:38;15.60;;;12.40;;
1925;SDS011;964;42.606;23.588;2023-05-17T14:56:05;9.20;;;6.27;;
1925;SDS011;964;42.606;23.588;2023-05-17T14:58:32;9.80;;;5.97;;
1925;SDS011;964;42.606;23.588;2023-05-17T15:00:58;11.80;;;6.40;;
1925;SDS011;964;42.606;23.588;2023-05-17T15:03:27;15.83;;;8.53;;